Terminal Aerodrome Forecast
Issued by NWS

Home | Current Version | Previous Version | Text Only | Print | Product List | Glossary On
Versions: 1 2 3 4 5 6 7 8 9 10 11 12 13 14 15 16 17
000
FTUS46 KMTR 180737 AAA
TAFSJC
TAF AMD
KSJC 180737Z 1808/1906 VRB04KT 5SM BR FEW001 SCT006
      TEMPO 1808/1810 3SM BR SCT006 BKN009
     FM181000 18004KT 3SM BR OVC008
     FM181600 14006KT 5SM BR OVC030
     FM182100 26006KT P6SM -RA OVC025=

USA.gov is the U.S. government's official web portal to all federal, state and local government web resources and services.